sensor_id;sensor_type;location;lat;lon;timestamp;P1;durP1;ratioP1;P2;durP2;ratioP2
35110;SDS011;21290;50.158;8.658;2022-10-01T00:00:53;9.00;;;6.75;;
35110;SDS011;21290;50.158;8.658;2022-10-01T00:03:23;12.07;;;7.22;;
35110;SDS011;21290;50.158;8.658;2022-10-01T00:05:57;15.05;;;7.53;;
35110;SDS011;21290;50.158;8.658;2022-10-01T00:08:44;9.93;;;6.63;;
35110;SDS011;21290;50.158;8.658;2022-10-01T00:11:15;12.38;;;7.22;;
35110;SDS011;21290;50.158;8.658;2022-10-01T00:13:42;9.60;;;7.15;;
35110;SDS011;21290;50.158;8.658;2022-10-01T00:16:10;11.65;;;7.10;;
35110;SDS011;21290;50.158;8.658;2022-10-01T00:18:40;10.77;;;7.38;;
35110;SDS011;21290;50.158;8.658;2022-10-01T00:21:09;9.85;;;7.22;;
35110;SDS011;21290;50.158;8.658;2022-10-01T00:23:37;11.60;;;8.00;;
35110;SDS011;21290;50.158;8.658;2022-10-01T00:26:09;11.50;;;8.10;;
35110;SDS011;21290;50.158;8.658;2022-10-01T00:28:44;17.02;;;7.80;;
35110;SDS011;21290;50.158;8.658;2022-10-01T00:31:12;10.35;;;7.68;;
35110;SDS011;21290;50.158;8.658;2022-10-01T00:33:41;10.53;;;7.63;;
35110;SDS011;21290;50.158;8.658;2022-10-01T00:36:08;17.00;;;8.13;;
35110;SDS011;21290;50.158;8.658;2022-10-01T00:38:36;12.10;;;8.40;;
35110;SDS011;21290;50.158;8.658;2022-10-01T00:43:36;13.68;;;8.18;;
35110;SDS011;21290;50.158;8.658;2022-10-01T00:48:51;14.40;;;8.10;;
35110;SDS011;21290;50.158;8.658;2022-10-01T00:51:27;14.63;;;8.18;;
35110;SDS011;21290;50.158;8.658;2022-10-01T00:54:00;14.25;;;7.97;;
35110;SDS011;21290;50.158;8.658;2022-10-01T00:56:33;9.77;;;7.45;;
35110;SDS011;21290;50.158;8.658;2022-10-01T00:59:00;10.60;;;7.75;;
35110;SDS011;21290;50.158;8.658;2022-10-01T01:01:27;10.30;;;7.85;;
35110;SDS011;21290;50.158;8.658;2022-10-01T01:03:54;9.15;;;7.72;;
35110;SDS011;21290;50.158;8.658;2022-10-01T01:06:21;12.32;;;8.15;;
35110;SDS011;21290;50.158;8.658;2022-10-01T01:08:48;10.50;;;7.85;;
35110;SDS011;21290;50.158;8.658;2022-10-01T01:11:23;12.15;;;8.90;;
35110;SDS011;21290;50.158;8.658;2022-10-01T01:14:08;13.80;;;8.43;;
35110;SDS011;21290;50.158;8.658;2022-10-01T01:16:51;7.72;;;5.55;;
35110;SDS011;21290;50.158;8.658;2022-10-01T01:22:27;14.10;;;8.70;;
35110;SDS011;21290;50.158;8.658;2022-10-01T01:24:59;13.25;;;8.68;;
35110;SDS011;21290;50.158;8.658;2022-10-01T01:30:10;13.55;;;8.85;;
35110;SDS011;21290;50.158;8.658;2022-10-01T01:33:02;16.38;;;9.63;;
35110;SDS011;21290;50.158;8.658;2022-10-01T01:35:32;13.77;;;9.57;;
35110;SDS011;21290;50.158;8.658;2022-10-01T01:38:04;11.98;;;9.30;;
35110;SDS011;21290;50.158;8.658;2022-10-01T01:40:36;16.80;;;9.50;;
35110;SDS011;21290;50.158;8.658;2022-10-01T01:43:06;16.40;;;10.15;;
35110;SDS011;21290;50.158;8.658;2022-10-01T01:45:37;14.38;;;9.95;;
35110;SDS011;21290;50.158;8.658;2022-10-01T01:48:05;14.90;;;8.98;;
35110;SDS011;21290;50.158;8.658;2022-10-01T01:53:06;16.85;;;10.73;;
35110;SDS011;21290;50.158;8.658;2022-10-01T01:55:34;18.05;;;10.85;;
35110;SDS011;21290;50.158;8.658;2022-10-01T01:58:02;14.75;;;11.25;;
35110;SDS011;21290;50.158;8.658;2022-10-01T02:00:28;13.40;;;10.27;;
35110;SDS011;21290;50.158;8.658;2022-10-01T02:02:55;13.20;;;10.85;;
35110;SDS011;21290;50.158;8.658;2022-10-01T02:05:24;20.17;;;11.25;;
35110;SDS011;21290;50.158;8.658;2022-10-01T02:08:07;15.70;;;11.43;;
35110;SDS011;21290;50.158;8.658;2022-10-01T02:10:50;14.48;;;10.82;;
35110;SDS011;21290;50.158;8.658;2022-10-01T02:16:18;17.77;;;11.82;;
35110;SDS011;21290;50.158;8.658;2022-10-01T02:19:09;19.33;;;11.38;;
35110;SDS011;21290;50.158;8.658;2022-10-01T02:21:46;17.15;;;11.70;;
35110;SDS011;21290;50.158;8.658;2022-10-01T02:24:32;19.67;;;11.77;;
35110;SDS011;21290;50.158;8.658;2022-10-01T02:27:17;18.33;;;11.10;;
35110;SDS011;21290;50.158;8.658;2022-10-01T02:30:09;18.25;;;12.15;;
35110;SDS011;21290;50.158;8.658;2022-10-01T02:32:37;17.75;;;10.63;;
35110;SDS011;21290;50.158;8.658;2022-10-01T02:35:06;14.98;;;10.80;;
35110;SDS011;21290;50.158;8.658;2022-10-01T02:37:37;13.32;;;10.45;;
35110;SDS011;21290;50.158;8.658;2022-10-01T02:40:06;14.52;;;10.77;;
35110;SDS011;21290;50.158;8.658;2022-10-01T02:42:41;15.65;;;11.07;;
35110;SDS011;21290;50.158;8.658;2022-10-01T02:45:13;13.80;;;10.55;;
35110;SDS011;21290;50.158;8.658;2022-10-01T02:47:52;16.02;;;11.05;;
35110;SDS011;21290;50.158;8.658;2022-10-01T02:50:25;15.00;;;10.77;;
35110;SDS011;21290;50.158;8.658;2022-10-01T02:53:01;21.77;;;12.82;;
35110;SDS011;21290;50.158;8.658;2022-10-01T02:55:32;17.48;;;10.88;;
35110;SDS011;21290;50.158;8.658;2022-10-01T02:58:02;17.15;;;11.60;;
35110;SDS011;21290;50.158;8.658;2022-10-01T03:00:29;17.92;;;11.82;;
35110;SDS011;21290;50.158;8.658;2022-10-01T03:02:56;18.13;;;11.93;;
35110;SDS011;21290;50.158;8.658;2022-10-01T03:05:22;19.65;;;11.82;;
35110;SDS011;21290;50.158;8.658;2022-10-01T03:07:49;15.50;;;11.68;;
35110;SDS011;21290;50.158;8.658;2022-10-01T03:10:16;15.70;;;11.13;;
35110;SDS011;21290;50.158;8.658;2022-10-01T03:12:43;18.98;;;11.07;;
35110;SDS011;21290;50.158;8.658;2022-10-01T03:15:12;18.10;;;11.80;;
35110;SDS011;21290;50.158;8.658;2022-10-01T03:17:39;15.98;;;10.77;;
35110;SDS011;21290;50.158;8.658;2022-10-01T03:20:06;15.77;;;11.43;;
35110;SDS011;21290;50.158;8.658;2022-10-01T03:22:33;13.63;;;10.70;;
35110;SDS011;21290;50.158;8.658;2022-10-01T03:25:00;16.38;;;11.57;;
35110;SDS011;21290;50.158;8.658;2022-10-01T03:27:27;16.00;;;11.70;;
35110;SDS011;21290;50.158;8.658;2022-10-01T03:29:53;18.65;;;11.35;;
35110;SDS011;21290;50.158;8.658;2022-10-01T03:32:20;15.90;;;10.05;;
35110;SDS011;21290;50.158;8.658;2022-10-01T03:34:46;14.82;;;10.43;;
35110;SDS011;21290;50.158;8.658;2022-10-01T03:37:13;18.73;;;11.32;;
35110;SDS011;21290;50.158;8.658;2022-10-01T03:39:39;22.40;;;11.38;;
35110;SDS011;21290;50.158;8.658;2022-10-01T03:42:06;13.00;;;10.80;;
35110;SDS011;21290;50.158;8.658;2022-10-01T03:44:32;19.38;;;11.65;;
35110;SDS011;21290;50.158;8.658;2022-10-01T03:46:59;15.32;;;11.10;;
35110;SDS011;21290;50.158;8.658;2022-10-01T03:49:26;17.35;;;11.88;;
35110;SDS011;21290;50.158;8.658;2022-10-01T03:51:53;18.80;;;12.43;;
35110;SDS011;21290;50.158;8.658;2022-10-01T03:54:19;15.07;;;11.65;;
35110;SDS011;21290;50.158;8.658;2022-10-01T03:56:46;14.98;;;12.30;;
35110;SDS011;21290;50.158;8.658;2022-10-01T03:59:13;17.50;;;12.55;;
35110;SDS011;21290;50.158;8.658;2022-10-01T04:01:40;19.45;;;12.65;;
35110;SDS011;21290;50.158;8.658;2022-10-01T04:04:07;18.15;;;13.05;;
35110;SDS011;21290;50.158;8.658;2022-10-01T04:06:33;15.93;;;12.70;;
35110;SDS011;21290;50.158;8.658;2022-10-01T04:09:00;17.88;;;13.73;;
35110;SDS011;21290;50.158;8.658;2022-10-01T04:11:26;19.15;;;14.18;;
35110;SDS011;21290;50.158;8.658;2022-10-01T04:13:53;22.20;;;13.93;;
35110;SDS011;21290;50.158;8.658;2022-10-01T04:16:20;22.40;;;14.30;;
35110;SDS011;21290;50.158;8.658;2022-10-01T04:18:46;20.75;;;15.10;;
35110;SDS011;21290;50.158;8.658;2022-10-01T04:21:13;19.67;;;14.32;;
35110;SDS011;21290;50.158;8.658;2022-10-01T04:23:40;19.55;;;13.98;;
35110;SDS011;21290;50.158;8.658;2022-10-01T04:26:07;19.48;;;13.95;;
35110;SDS011;21290;50.158;8.658;2022-10-01T04:28:34;16.65;;;13.10;;
35110;SDS011;21290;50.158;8.658;2022-10-01T04:31:00;22.00;;;13.27;;
35110;SDS011;21290;50.158;8.658;2022-10-01T04:33:46;17.10;;;12.63;;
35110;SDS011;21290;50.158;8.658;2022-10-01T04:36:13;24.00;;;12.60;;
35110;SDS011;21290;50.158;8.658;2022-10-01T04:38:39;18.15;;;12.73;;
35110;SDS011;21290;50.158;8.658;2022-10-01T04:41:06;16.35;;;10.98;;
35110;SDS011;21290;50.158;8.658;2022-10-01T04:43:34;17.75;;;11.23;;
35110;SDS011;21290;50.158;8.658;2022-10-01T04:46:01;19.15;;;11.18;;
35110;SDS011;21290;50.158;8.658;2022-10-01T04:48:28;13.80;;;10.88;;
35110;SDS011;21290;50.158;8.658;2022-10-01T04:50:54;15.25;;;11.10;;
35110;SDS011;21290;50.158;8.658;2022-10-01T04:53:21;18.88;;;11.10;;
35110;SDS011;21290;50.158;8.658;2022-10-01T04:55:47;14.02;;;11.30;;
35110;SDS011;21290;50.158;8.658;2022-10-01T04:58:14;13.20;;;11.05;;
35110;SDS011;21290;50.158;8.658;2022-10-01T05:00:40;16.25;;;10.75;;
35110;SDS011;21290;50.158;8.658;2022-10-01T05:03:07;15.98;;;10.82;;
35110;SDS011;21290;50.158;8.658;2022-10-01T05:05:34;13.73;;;10.10;;
35110;SDS011;21290;50.158;8.658;2022-10-01T05:08:01;17.30;;;10.10;;
35110;SDS011;21290;50.158;8.658;2022-10-01T05:10:27;17.15;;;10.77;;
35110;SDS011;21290;50.158;8.658;2022-10-01T05:12:54;12.98;;;9.95;;
35110;SDS011;21290;50.158;8.658;2022-10-01T05:15:22;14.93;;;10.20;;
35110;SDS011;21290;50.158;8.658;2022-10-01T05:17:49;16.02;;;9.88;;
35110;SDS011;21290;50.158;8.658;2022-10-01T05:20:17;11.98;;;8.90;;
35110;SDS011;21290;50.158;8.658;2022-10-01T05:22:45;13.65;;;9.95;;
35110;SDS011;21290;50.158;8.658;2022-10-01T05:25:12;12.85;;;9.00;;
35110;SDS011;21290;50.158;8.658;2022-10-01T05:27:38;11.30;;;9.18;;
35110;SDS011;21290;50.158;8.658;2022-10-01T05:30:07;14.93;;;9.50;;
35110;SDS011;21290;50.158;8.658;2022-10-01T05:32:35;15.27;;;9.48;;
35110;SDS011;21290;50.158;8.658;2022-10-01T05:35:03;14.70;;;10.27;;
35110;SDS011;21290;50.158;8.658;2022-10-01T05:37:30;12.20;;;9.02;;
35110;SDS011;21290;50.158;8.658;2022-10-01T05:39:57;12.90;;;9.73;;
35110;SDS011;21290;50.158;8.658;2022-10-01T05:42:23;14.75;;;10.00;;
35110;SDS011;21290;50.158;8.658;2022-10-01T05:44:50;15.25;;;10.35;;
35110;SDS011;21290;50.158;8.658;2022-10-01T05:47:16;11.68;;;9.75;;
35110;SDS011;21290;50.158;8.658;2022-10-01T05:49:43;13.73;;;8.95;;
35110;SDS011;21290;50.158;8.658;2022-10-01T05:52:10;11.95;;;8.93;;
35110;SDS011;21290;50.158;8.658;2022-10-01T05:54:37;19.65;;;9.65;;
35110;SDS011;21290;50.158;8.658;2022-10-01T05:57:04;14.75;;;9.75;;
35110;SDS011;21290;50.158;8.658;2022-10-01T05:59:33;13.50;;;9.10;;
35110;SDS011;21290;50.158;8.658;2022-10-01T06:02:00;14.95;;;10.00;;
35110;SDS011;21290;50.158;8.658;2022-10-01T06:04:27;12.70;;;9.70;;
35110;SDS011;21290;50.158;8.658;2022-10-01T06:06:53;22.40;;;9.90;;
35110;SDS011;21290;50.158;8.658;2022-10-01T06:09:21;14.35;;;10.10;;
35110;SDS011;21290;50.158;8.658;2022-10-01T06:11:47;13.30;;;10.25;;
35110;SDS011;21290;50.158;8.658;2022-10-01T06:14:14;13.77;;;10.35;;
35110;SDS011;21290;50.158;8.658;2022-10-01T06:16:42;16.83;;;10.30;;
35110;SDS011;21290;50.158;8.658;2022-10-01T06:19:08;15.80;;;10.02;;
35110;SDS011;21290;50.158;8.658;2022-10-01T06:21:35;19.67;;;9.98;;
35110;SDS011;21290;50.158;8.658;2022-10-01T06:24:02;13.95;;;9.55;;
35110;SDS011;21290;50.158;8.658;2022-10-01T06:26:29;16.40;;;10.13;;
35110;SDS011;21290;50.158;8.658;2022-10-01T06:28:56;13.75;;;9.10;;
35110;SDS011;21290;50.158;8.658;2022-10-01T06:31:22;13.88;;;8.95;;
35110;SDS011;21290;50.158;8.658;2022-10-01T06:33:49;12.98;;;8.82;;
35110;SDS011;21290;50.158;8.658;2022-10-01T06:36:15;12.18;;;9.13;;
35110;SDS011;21290;50.158;8.658;2022-10-01T06:38:42;13.75;;;8.80;;
35110;SDS011;21290;50.158;8.658;2022-10-01T06:41:08;14.00;;;8.85;;
35110;SDS011;21290;50.158;8.658;2022-10-01T06:43:39;12.02;;;9.68;;
35110;SDS011;21290;50.158;8.658;2022-10-01T06:46:05;14.55;;;8.48;;
35110;SDS011;21290;50.158;8.658;2022-10-01T06:48:32;12.43;;;8.95;;
35110;SDS011;21290;50.158;8.658;2022-10-01T06:51:01;17.25;;;9.45;;
35110;SDS011;21290;50.158;8.658;2022-10-01T06:53:28;14.30;;;9.77;;
35110;SDS011;21290;50.158;8.658;2022-10-01T06:55:55;10.68;;;8.45;;
35110;SDS011;21290;50.158;8.658;2022-10-01T06:58:22;10.98;;;8.70;;
35110;SDS011;21290;50.158;8.658;2022-10-01T07:00:56;17.52;;;11.25;;
35110;SDS011;21290;50.158;8.658;2022-10-01T07:03:25;11.10;;;8.45;;
35110;SDS011;21290;50.158;8.658;2022-10-01T07:05:52;8.75;;;7.60;;
35110;SDS011;21290;50.158;8.658;2022-10-01T07:08:19;10.90;;;8.43;;
35110;SDS011;21290;50.158;8.658;2022-10-01T07:10:46;12.77;;;9.30;;
35110;SDS011;21290;50.158;8.658;2022-10-01T07:13:13;9.40;;;8.00;;
35110;SDS011;21290;50.158;8.658;2022-10-01T07:15:45;12.43;;;8.63;;
35110;SDS011;21290;50.158;8.658;2022-10-01T07:18:11;14.63;;;8.75;;
35110;SDS011;21290;50.158;8.658;2022-10-01T07:20:39;13.38;;;8.52;;
35110;SDS011;21290;50.158;8.658;2022-10-01T07:23:12;10.70;;;8.15;;
35110;SDS011;21290;50.158;8.658;2022-10-01T07:25:40;11.40;;;7.97;;
35110;SDS011;21290;50.158;8.658;2022-10-01T07:28:09;8.95;;;7.30;;
35110;SDS011;21290;50.158;8.658;2022-10-01T07:30:45;13.27;;;8.18;;
35110;SDS011;21290;50.158;8.658;2022-10-01T07:33:21;21.83;;;8.38;;
35110;SDS011;21290;50.158;8.658;2022-10-01T07:35:47;11.18;;;8.23;;
35110;SDS011;21290;50.158;8.658;2022-10-01T07:38:14;10.82;;;7.88;;
35110;SDS011;21290;50.158;8.658;2022-10-01T07:40:41;9.95;;;8.02;;
35110;SDS011;21290;50.158;8.658;2022-10-01T07:43:08;12.40;;;8.07;;
35110;SDS011;21290;50.158;8.658;2022-10-01T07:45:34;10.00;;;7.70;;
35110;SDS011;21290;50.158;8.658;2022-10-01T07:48:01;10.15;;;7.68;;
35110;SDS011;21290;50.158;8.658;2022-10-01T07:50:28;10.48;;;7.85;;
35110;SDS011;21290;50.158;8.658;2022-10-01T07:52:58;11.07;;;7.50;;
35110;SDS011;21290;50.158;8.658;2022-10-01T07:55:25;12.82;;;7.75;;
35110;SDS011;21290;50.158;8.658;2022-10-01T07:57:53;9.70;;;7.20;;
35110;SDS011;21290;50.158;8.658;2022-10-01T08:00:22;12.40;;;7.90;;
35110;SDS011;21290;50.158;8.658;2022-10-01T08:02:51;12.25;;;8.32;;
35110;SDS011;21290;50.158;8.658;2022-10-01T08:05:20;11.38;;;7.95;;
35110;SDS011;21290;50.158;8.658;2022-10-01T08:07:48;9.90;;;8.18;;
35110;SDS011;21290;50.158;8.658;2022-10-01T08:10:15;11.45;;;8.15;;
35110;SDS011;21290;50.158;8.658;2022-10-01T08:12:43;9.33;;;7.47;;
35110;SDS011;21290;50.158;8.658;2022-10-01T08:15:12;9.38;;;7.60;;
35110;SDS011;21290;50.158;8.658;2022-10-01T08:17:39;11.57;;;8.07;;
35110;SDS011;21290;50.158;8.658;2022-10-01T08:20:07;9.45;;;7.53;;
35110;SDS011;21290;50.158;8.658;2022-10-01T08:22:35;12.55;;;8.50;;
35110;SDS011;21290;50.158;8.658;2022-10-01T08:25:07;16.05;;;10.07;;
35110;SDS011;21290;50.158;8.658;2022-10-01T08:27:34;12.00;;;7.40;;
35110;SDS011;21290;50.158;8.658;2022-10-01T08:30:01;10.18;;;7.95;;
35110;SDS011;21290;50.158;8.658;2022-10-01T08:32:28;16.88;;;10.10;;
35110;SDS011;21290;50.158;8.658;2022-10-01T08:34:56;14.30;;;8.00;;
35110;SDS011;21290;50.158;8.658;2022-10-01T08:37:28;9.70;;;8.15;;
35110;SDS011;21290;50.158;8.658;2022-10-01T08:39:55;9.10;;;7.82;;
35110;SDS011;21290;50.158;8.658;2022-10-01T08:42:35;12.20;;;8.15;;
35110;SDS011;21290;50.158;8.658;2022-10-01T08:45:14;11.05;;;7.68;;
35110;SDS011;21290;50.158;8.658;2022-10-01T08:47:58;7.70;;;6.35;;
35110;SDS011;21290;50.158;8.658;2022-10-01T08:50:51;9.95;;;7.38;;
35110;SDS011;21290;50.158;8.658;2022-10-01T08:53:30;10.43;;;7.65;;
35110;SDS011;21290;50.158;8.658;2022-10-01T08:56:17;12.38;;;8.82;;
35110;SDS011;21290;50.158;8.658;2022-10-01T08:58:58;12.20;;;8.00;;
35110;SDS011;21290;50.158;8.658;2022-10-01T09:01:28;12.80;;;7.43;;
35110;SDS011;21290;50.158;8.658;2022-10-01T09:03:57;9.80;;;7.22;;
35110;SDS011;21290;50.158;8.658;2022-10-01T09:06:25;8.70;;;6.53;;
35110;SDS011;21290;50.158;8.658;2022-10-01T09:11:56;10.07;;;6.80;;
35110;SDS011;21290;50.158;8.658;2022-10-01T09:17:44;8.20;;;5.63;;
35110;SDS011;21290;50.158;8.658;2022-10-01T09:20:22;7.38;;;4.72;;
35110;SDS011;21290;50.158;8.658;2022-10-01T09:25:29;5.80;;;4.85;;
35110;SDS011;21290;50.158;8.658;2022-10-01T09:28:01;5.32;;;4.13;;
35110;SDS011;21290;50.158;8.658;2022-10-01T09:30:47;7.05;;;4.70;;
35110;SDS011;21290;50.158;8.658;2022-10-01T09:33:21;6.38;;;4.40;;
35110;SDS011;21290;50.158;8.658;2022-10-01T09:38:30;5.10;;;4.60;;
35110;SDS011;21290;50.158;8.658;2022-10-01T09:40:59;4.78;;;4.07;;
35110;SDS011;21290;50.158;8.658;2022-10-01T09:43:26;6.68;;;5.05;;
35110;SDS011;21290;50.158;8.658;2022-10-01T09:45:55;4.95;;;4.50;;
35110;SDS011;21290;50.158;8.658;2022-10-01T09:48:28;8.18;;;4.78;;
35110;SDS011;21290;50.158;8.658;2022-10-01T09:50:57;5.30;;;4.75;;
35110;SDS011;21290;50.158;8.658;2022-10-01T09:53:41;7.40;;;5.22;;
35110;SDS011;21290;50.158;8.658;2022-10-01T09:56:27;10.02;;;5.60;;
35110;SDS011;21290;50.158;8.658;2022-10-01T09:59:00;5.63;;;4.43;;
35110;SDS011;21290;50.158;8.658;2022-10-01T10:01:50;5.30;;;4.68;;
35110;SDS011;21290;50.158;8.658;2022-10-01T10:04:20;6.93;;;5.28;;
35110;SDS011;21290;50.158;8.658;2022-10-01T10:06:50;10.18;;;5.80;;
35110;SDS011;21290;50.158;8.658;2022-10-01T10:09:28;7.63;;;5.90;;
35110;SDS011;21290;50.158;8.658;2022-10-01T10:11:59;10.50;;;5.70;;
35110;SDS011;21290;50.158;8.658;2022-10-01T10:14:28;9.45;;;5.70;;
35110;SDS011;21290;50.158;8.658;2022-10-01T10:17:02;5.78;;;4.80;;
35110;SDS011;21290;50.158;8.658;2022-10-01T10:19:36;10.15;;;5.32;;
35110;SDS011;21290;50.158;8.658;2022-10-01T10:22:11;8.77;;;5.22;;
35110;SDS011;21290;50.158;8.658;2022-10-01T10:24:48;9.13;;;5.45;;
35110;SDS011;21290;50.158;8.658;2022-10-01T10:27:28;5.20;;;4.70;;
35110;SDS011;21290;50.158;8.658;2022-10-01T10:30:14;8.50;;;4.82;;
35110;SDS011;21290;50.158;8.658;2022-10-01T10:32:42;8.70;;;4.60;;
35110;SDS011;21290;50.158;8.658;2022-10-01T10:35:14;7.57;;;4.97;;
35110;SDS011;21290;50.158;8.658;2022-10-01T10:37:48;7.63;;;4.78;;
35110;SDS011;21290;50.158;8.658;2022-10-01T10:40:24;7.15;;;4.45;;
35110;SDS011;21290;50.158;8.658;2022-10-01T10:42:59;6.57;;;4.50;;
35110;SDS011;21290;50.158;8.658;2022-10-01T10:45:30;10.30;;;4.40;;
35110;SDS011;21290;50.158;8.658;2022-10-01T10:48:00;3.83;;;3.20;;
35110;SDS011;21290;50.158;8.658;2022-10-01T10:50:34;7.00;;;4.70;;
35110;SDS011;21290;50.158;8.658;2022-10-01T10:53:10;6.22;;;4.00;;
35110;SDS011;21290;50.158;8.658;2022-10-01T10:55:55;10.15;;;3.60;;
35110;SDS011;21290;50.158;8.658;2022-10-01T10:58:26;4.80;;;3.88;;
35110;SDS011;21290;50.158;8.658;2022-10-01T11:00:56;5.53;;;4.22;;
35110;SDS011;21290;50.158;8.658;2022-10-01T11:03:35;4.65;;;3.80;;
35110;SDS011;21290;50.158;8.658;2022-10-01T11:06:10;8.57;;;3.50;;
35110;SDS011;21290;50.158;8.658;2022-10-01T11:08:40;5.78;;;3.30;;
35110;SDS011;21290;50.158;8.658;2022-10-01T11:19:11;3.45;;;2.70;;
35110;SDS011;21290;50.158;8.658;2022-10-01T11:22:12;3.05;;;2.70;;
35110;SDS011;21290;50.158;8.658;2022-10-01T11:24:55;3.83;;;2.72;;
35110;SDS011;21290;50.158;8.658;2022-10-01T11:27:47;4.43;;;2.60;;
35110;SDS011;21290;50.158;8.658;2022-10-01T11:33:27;6.22;;;3.17;;
35110;SDS011;21290;50.158;8.658;2022-10-01T11:36:19;7.10;;;3.20;;
35110;SDS011;21290;50.158;8.658;2022-10-01T11:38:58;5.20;;;2.83;;
35110;SDS011;21290;50.158;8.658;2022-10-01T11:43:56;4.25;;;3.42;;
35110;SDS011;21290;50.158;8.658;2022-10-01T11:46:30;7.05;;;4.10;;
35110;SDS011;21290;50.158;8.658;2022-10-01T11:49:18;3.53;;;3.22;;
35110;SDS011;21290;50.158;8.658;2022-10-01T11:54:59;4.35;;;3.13;;
35110;SDS011;21290;50.158;8.658;2022-10-01T11:58:25;3.90;;;3.40;;
35110;SDS011;21290;50.158;8.658;2022-10-01T12:09:13;4.50;;;3.22;;
35110;SDS011;21290;50.158;8.658;2022-10-01T12:11:47;3.72;;;2.35;;
35110;SDS011;21290;50.158;8.658;2022-10-01T12:14:26;4.60;;;2.60;;
35110;SDS011;21290;50.158;8.658;2022-10-01T12:17:15;3.37;;;2.50;;
35110;SDS011;21290;50.158;8.658;2022-10-01T12:19:47;2.80;;;2.55;;
35110;SDS011;21290;50.158;8.658;2022-10-01T12:22:19;3.90;;;2.78;;
35110;SDS011;21290;50.158;8.658;2022-10-01T12:24:50;2.92;;;1.98;;
35110;SDS011;21290;50.158;8.658;2022-10-01T12:27:30;3.50;;;1.92;;
35110;SDS011;21290;50.158;8.658;2022-10-01T12:32:49;4.70;;;2.30;;
35110;SDS011;21290;50.158;8.658;2022-10-01T12:35:44;2.28;;;1.58;;
35110;SDS011;21290;50.158;8.658;2022-10-01T12:38:20;1.70;;;1.60;;
35110;SDS011;21290;50.158;8.658;2022-10-01T12:49:36;2.97;;;1.75;;
35110;SDS011;21290;50.158;8.658;2022-10-01T12:52:32;5.15;;;1.35;;
35110;SDS011;21290;50.158;8.658;2022-10-01T13:00:49;3.00;;;1.30;;
35110;SDS011;21290;50.158;8.658;2022-10-01T13:09:31;3.28;;;1.80;;
35110;SDS011;21290;50.158;8.658;2022-10-01T13:12:37;2.40;;;1.60;;
35110;SDS011;21290;50.158;8.658;2022-10-01T13:15:28;5.40;;;1.60;;
35110;SDS011;21290;50.158;8.658;2022-10-01T13:20:39;1.88;;;1.60;;
35110;SDS011;21290;50.158;8.658;2022-10-01T13:23:20;4.13;;;1.10;;
35110;SDS011;21290;50.158;8.658;2022-10-01T13:26:11;3.40;;;1.60;;
35110;SDS011;21290;50.158;8.658;2022-10-01T13:31:51;6.25;;;2.17;;
35110;SDS011;21290;50.158;8.658;2022-10-01T13:34:23;3.92;;;1.95;;
35110;SDS011;21290;50.158;8.658;2022-10-01T13:37:17;3.28;;;2.00;;
35110;SDS011;21290;50.158;8.658;2022-10-01T13:39:57;1.40;;;1.30;;
35110;SDS011;21290;50.158;8.658;2022-10-01T13:42:29;7.57;;;1.52;;
35110;SDS011;21290;50.158;8.658;2022-10-01T13:45:25;1.63;;;1.45;;
35110;SDS011;21290;50.158;8.658;2022-10-01T13:48:11;1.45;;;1.30;;
35110;SDS011;21290;50.158;8.658;2022-10-01T13:50:52;2.05;;;1.17;;
35110;SDS011;21290;50.158;8.658;2022-10-01T13:53:31;2.55;;;1.10;;
35110;SDS011;21290;50.158;8.658;2022-10-01T13:56:01;3.22;;;1.17;;
35110;SDS011;21290;50.158;8.658;2022-10-01T14:00:59;1.67;;;1.08;;
35110;SDS011;21290;50.158;8.658;2022-10-01T14:06:23;2.00;;;0.90;;
35110;SDS011;21290;50.158;8.658;2022-10-01T14:12:00;0.90;;;0.80;;
35110;SDS011;21290;50.158;8.658;2022-10-01T14:14:56;1.70;;;1.00;;
35110;SDS011;21290;50.158;8.658;2022-10-01T14:17:43;1.17;;;0.90;;
35110;SDS011;21290;50.158;8.658;2022-10-01T14:20:17;1.83;;;0.90;;
35110;SDS011;21290;50.158;8.658;2022-10-01T14:25:31;2.72;;;1.02;;
35110;SDS011;21290;50.158;8.658;2022-10-01T14:28:34;1.80;;;0.90;;
35110;SDS011;21290;50.158;8.658;2022-10-01T14:36:41;4.05;;;1.10;;
35110;SDS011;21290;50.158;8.658;2022-10-01T14:39:17;5.10;;;1.55;;
35110;SDS011;21290;50.158;8.658;2022-10-01T14:41:52;2.03;;;0.80;;
35110;SDS011;21290;50.158;8.658;2022-10-01T14:44:27;2.75;;;0.95;;
35110;SDS011;21290;50.158;8.658;2022-10-01T14:46:56;2.78;;;2.30;;
35110;SDS011;21290;50.158;8.658;2022-10-01T14:52:00;1.45;;;0.85;;
35110;SDS011;21290;50.158;8.658;2022-10-01T14:54:30;1.58;;;1.25;;
35110;SDS011;21290;50.158;8.658;2022-10-01T14:57:17;4.50;;;0.60;;
35110;SDS011;21290;50.158;8.658;2022-10-01T14:59:59;2.30;;;0.70;;
35110;SDS011;21290;50.158;8.658;2022-10-01T15:02:32;2.10;;;1.35;;
35110;SDS011;21290;50.158;8.658;2022-10-01T15:04:59;0.75;;;0.70;;
35110;SDS011;21290;50.158;8.658;2022-10-01T15:07:27;2.03;;;0.50;;
35110;SDS011;21290;50.158;8.658;2022-10-01T15:10:06;0.57;;;0.52;;
35110;SDS011;21290;50.158;8.658;2022-10-01T15:12:37;1.98;;;0.70;;
35110;SDS011;21290;50.158;8.658;2022-10-01T15:15:16;2.97;;;0.95;;
35110;SDS011;21290;50.158;8.658;2022-10-01T15:17:53;0.85;;;0.52;;
35110;SDS011;21290;50.158;8.658;2022-10-01T15:20:19;1.10;;;0.50;;
35110;SDS011;21290;50.158;8.658;2022-10-01T15:22:47;0.70;;;0.60;;
35110;SDS011;21290;50.158;8.658;2022-10-01T15:25:17;2.80;;;1.38;;
35110;SDS011;21290;50.158;8.658;2022-10-01T15:27:47;1.83;;;0.65;;
35110;SDS011;21290;50.158;8.658;2022-10-01T15:30:15;1.27;;;0.85;;
35110;SDS011;21290;50.158;8.658;2022-10-01T15:32:46;2.90;;;0.90;;
35110;SDS011;21290;50.158;8.658;2022-10-01T15:35:13;3.85;;;1.25;;
35110;SDS011;21290;50.158;8.658;2022-10-01T15:37:44;4.78;;;1.98;;
35110;SDS011;21290;50.158;8.658;2022-10-01T15:43:10;2.78;;;1.30;;
35110;SDS011;21290;50.158;8.658;2022-10-01T15:45:47;4.97;;;1.70;;
35110;SDS011;21290;50.158;8.658;2022-10-01T15:49:10;2.28;;;0.93;;
35110;SDS011;21290;50.158;8.658;2022-10-01T15:51:46;3.63;;;1.23;;
35110;SDS011;21290;50.158;8.658;2022-10-01T15:54:40;3.50;;;0.95;;
35110;SDS011;21290;50.158;8.658;2022-10-01T15:57:13;2.60;;;1.10;;
35110;SDS011;21290;50.158;8.658;2022-10-01T15:59:45;4.63;;;1.00;;
35110;SDS011;21290;50.158;8.658;2022-10-01T16:02:18;2.60;;;1.25;;
35110;SDS011;21290;50.158;8.658;2022-10-01T16:04:49;3.60;;;1.65;;
35110;SDS011;21290;50.158;8.658;2022-10-01T16:07:28;6.18;;;1.40;;
35110;SDS011;21290;50.158;8.658;2022-10-01T16:09:57;5.53;;;1.55;;
35110;SDS011;21290;50.158;8.658;2022-10-01T16:12:25;6.10;;;1.60;;
35110;SDS011;21290;50.158;8.658;2022-10-01T16:14:57;5.13;;;1.45;;
35110;SDS011;21290;50.158;8.658;2022-10-01T16:17:37;4.20;;;1.17;;
35110;SDS011;21290;50.158;8.658;2022-10-01T16:22:39;5.65;;;2.10;;
35110;SDS011;21290;50.158;8.658;2022-10-01T16:28:01;9.15;;;1.90;;
35110;SDS011;21290;50.158;8.658;2022-10-01T16:30:30;7.32;;;1.83;;
35110;SDS011;21290;50.158;8.658;2022-10-01T16:33:01;20.38;;;8.05;;
35110;SDS011;21290;50.158;8.658;2022-10-01T16:35:33;6.90;;;2.17;;
35110;SDS011;21290;50.158;8.658;2022-10-01T16:38:01;7.88;;;2.05;;
35110;SDS011;21290;50.158;8.658;2022-10-01T16:40:32;8.30;;;2.05;;
35110;SDS011;21290;50.158;8.658;2022-10-01T16:43:03;9.02;;;2.28;;
35110;SDS011;21290;50.158;8.658;2022-10-01T16:45:36;28.05;;;21.25;;
35110;SDS011;21290;50.158;8.658;2022-10-01T16:48:14;11.48;;;3.15;;
35110;SDS011;21290;50.158;8.658;2022-10-01T16:50:45;16.05;;;3.85;;
35110;SDS011;21290;50.158;8.658;2022-10-01T16:53:13;7.15;;;2.17;;
35110;SDS011;21290;50.158;8.658;2022-10-01T16:55:42;10.38;;;2.90;;